This is the latest recevied weather packets stored in our database for station/object KO5MO-3. If no packets are shown the sender has not sent any weather packets the latest 1 day(s).
| Time | Temp. | Humidity | Pressure | Rain* | Wind** | Luminosity | Snow |
|---|---|---|---|---|---|---|---|
| 1778081394 | 21.67° C | 39% | 1007.5 hPa | 0 mm | - | - | - |
| 1778080494 | 21.11° C | 40% | 1007.5 hPa | 0 mm | - | - | - |
| 1778079894 | 21.11° C | 39% | 1007.5 hPa | 0 mm | - | - | - |
| 1778079594 | 21.11° C | 39% | 1007.5 hPa | 0 mm | - | - | - |
| 1778079294 | 20.56° C | 41% | 1007.5 hPa | 0 mm | - | - | - |
| 1778078994 | 20.56° C | 41% | 1007.5 hPa | 0 mm | - | - | - |
| 1778076294 | 20° C | 42% | 1007.5 hPa | 0 mm | - | - | - |
| 1778075694 | 19.44° C | 43% | 1007.5 hPa | 0 mm | - | - | - |
| 1778075094 | 18.89° C | 44% | 1007.5 hPa | 0 mm | - | - | - |
| 1778074794 | 18.89° C | 44% | 1007.5 hPa | 0 mm | - | - | - |
| 1778074494 | 19.44° C | 43% | 1007.5 hPa | 0 mm | - | - | - |
| 1778074194 | 18.89° C | 44% | 1007.5 hPa | 0 mm | - | - | - |
| 1778073294 | 16.67° C | 48% | 1007.5 hPa | 0 mm | - | - | - |
| 1778072694 | 16.11° C | 50% | 1007.5 hPa | 0 mm | - | - | - |
| 1778072394 | 15.56° C | 51% | 1007.5 hPa | 0 mm | - | - | - |
| 1778072094 | 15° C | 53% | 1007.5 hPa | 0 mm | - | - | - |
| 1778071494 | 13.89° C | 55% | 1007.5 hPa | 0 mm | - | - | - |
| 1778070894 | 13.89° C | 55% | 1007.5 hPa | 0 mm | - | - | - |
| 1778070594 | 13.89° C | 54% | 1007.5 hPa | 0 mm | - | - | - |
| 1778070294 | 14.44° C | 53% | 1007.5 hPa | 0 mm | - | - | - |
| 1778069994 | 15° C | 51% | 1007.5 hPa | 0 mm | - | - | - |
| 1778069694 | 15° C | 51% | 1007.5 hPa | 0 mm | - | - | - |
| 1778069394 | 14.44° C | 53% | 1007.5 hPa | 0 mm | - | - | - |
| 1778069094 | 15° C | 52% | 1007.5 hPa | 0 mm | - | - | - |
| 1778068794 | 15.56° C | 51% | 1007.5 hPa | 0 mm | - | - | - |
* Rain latest hour (hover to see other rain measurements)
** Current wind speed in m/s (hover to see current wind gust speed)